Terminal Aerodrome Forecast
Issued by NWS Bismarck, ND

Home | Current Version | Previous Version | Text Only | Print | Product List | Glossary On
Versions: 1 2 3 4 5 6 7 8 9 10 11 12 13 14 15 16
000
FTUS43 KBIS 250530 AAB
TAFISN
TAF AMD
KISN 250530Z 2506/2606 14015G23KT P6SM BKN200 WS020/17040KT
     FM251200 16014KT P6SM BKN150
     FM251800 22013KT P6SM BKN150
     FM252300 25011KT P6SM -SHRA OVC080
     FM260500 25008KT P6SM OVC150=

USA.gov is the U.S. government's official web portal to all federal, state and local government web resources and services.